Home > Products > Valid Products > TAF

000
FTUS45 KVEF 230538
TAFLAS
TAF
KLAS 230538Z 2306/2406 18010KT P6SM BKN110
     FM231500 16006KT P6SM BKN100
     FM232000 22014G22KT P6SM SCT080 BKN100=



000
FTUS45 KVEF 230538
TAFDAG
TAF
KDAG 230538Z 2306/2406 23019KT P6SM SCT090
     FM231500 28014KT P6SM SCT090
     FM231800 26015G25KT P6SM FEW100
     FM232200 24020G30KT P6SM FEW100=



000
FTUS45 KVEF 230538
TAFLAS
TAF
KLAS 230538Z 2306/2406 18010KT P6SM BKN110
     FM231500 16006KT P6SM BKN100
     FM232000 22014G22KT P6SM SCT080 BKN100=



000
FTUS45 KVEF 230538
TAFVGT
TAF
KVGT 230538Z 2306/2406 VRB06KT P6SM BKN110
     FM231600 14006KT P6SM BKN090
     FM232100 23010G17KT P6SM BKN090=



000
FTUS45 KVEF 230538
TAFEED
TAF
KEED 230538Z 2306/2406 22007KT P6SM OVC100
     FM231000 VRB04KT P6SM SCT100
     FM231600 16007KT P6SM SCT100
     FM231900 21012G20KT P6SM SCT100=



000
FTUS45 KVEF 230538
TAFBIH
TAF
KBIH 230538Z 2306/2406 VRB06KT P6SM BKN060
     FM231000 34008KT P6SM BKN100
     FM232000 33010KT P6SM VCSH SCT060 BKN100=



000
FTUS45 KVEF 230340 AAA
TAFEED
TAF AMD
KEED 230340Z 2304/2324 24008KT P6SM BKN100
     FM231600 16007KT P6SM FEW100 SCT250
     FM231900 21015G23KT P6SM FEW100=



000
FTUS45 KVEF 230245 AAA
TAFVGT
TAF AMD
KVGT 230245Z 2303/2324 32008KT P6SM FEW090 SCT110
     FM230500 VRB06KT P6SM FEW090 BKN110
     FM231600 14006KT P6SM BKN090
     FM232100 23010G17KT P6SM BKN090=



000
FTUS45 KVEF 230203 AAC
TAFLAS
TAF AMD
KLAS 230203Z 2302/2324 21009KT P6SM FEW090 BKN110
     FM231500 16006KT P6SM BKN090
     FM232000 22011G18KT P6SM BKN090=



000
FTUS45 KVEF 230203 AAC
TAFLAS
TAF AMD
KLAS 230203Z 2302/2324 21009KT P6SM FEW090 BKN110
     FM231500 16006KT P6SM BKN090
     FM232000 22011G18KT P6SM BKN090=



000
FTUS45 KVEF 230103 AAB
TAFLAS
TAF AMD
KLAS 230103Z 2301/2324 31015G20KT P6SM SCT090 BKN110
     FM230400 20009KT P6SM FEW090 BKN110
     FM231500 16006KT P6SM BKN090
     FM232000 22011G18KT P6SM BKN090=



000
FTUS45 KVEF 230103 AAB
TAFLAS
TAF AMD
KLAS 230103Z 2301/2324 31015G20KT P6SM SCT090 BKN110
     FM230400 20009KT P6SM FEW090 BKN110
     FM231500 16006KT P6SM BKN090
     FM232000 22011G18KT P6SM BKN090=



000
FTUS45 KVEF 230103 AAB
TAFLAS
TAF AMD
KLAS 230103Z 2301/2324 31015G20KT P6SM SCT090 BKN110
     FM230400 20009KT P6SM FEW090 BKN110
     FM231500 16006KT P6SM BKN090
     FM232000 22011G18KT P6SM BKN090=



000
FTUS45 KVEF 230103 AAB
TAFLAS
TAF AMD
KLAS 230103Z 2301/2324 31015G20KT P6SM SCT090 BKN110
     FM230400 20009KT P6SM FEW090 BKN110
     FM231500 16006KT P6SM BKN090
     FM232000 22011G18KT P6SM BKN090=



000
FTUS45 KVEF 230013 AAA
TAFLAS
TAF AMD
KLAS 230013Z 2300/2324 20013G25KT P6SM VCSH FEW090 SCT110 BKN180
     FM230115 31010KT P6SM SCT090 BKN110
     FM230400 20009KT P6SM FEW090 BKN110
     FM231500 16006KT P6SM BKN090
     FM232000 22011G18KT P6SM BKN090=



000
FTUS45 KVEF 230013 AAA
TAFLAS
TAF AMD
KLAS 230013Z 2300/2324 20013G25KT P6SM VCSH FEW090 SCT110 BKN180
     FM230115 31010KT P6SM SCT090 BKN110
     FM230400 20009KT P6SM FEW090 BKN110
     FM231500 16006KT P6SM BKN090
     FM232000 22011G18KT P6SM BKN090=



000
FTUS45 KVEF 230013 AAA
TAFLAS
TAF AMD
KLAS 230013Z 2300/2324 20013G25KT P6SM VCSH FEW090 SCT110 BKN180
     FM230115 31010KT P6SM SCT090 BKN110
     FM230400 20009KT P6SM FEW090 BKN110
     FM231500 16006KT P6SM BKN090
     FM232000 22011G18KT P6SM BKN090=



000
FTUS45 KVEF 230013 AAA
TAFLAS
TAF AMD
KLAS 230013Z 2300/2324 20013G25KT P6SM VCSH FEW090 SCT110 BKN180
     FM230115 31010KT P6SM SCT090 BKN110
     FM230400 20009KT P6SM FEW090 BKN110
     FM231500 16006KT P6SM BKN090
     FM232000 22011G18KT P6SM BKN090=



000
FTUS45 KVEF 222320
TAFVGT
TAF
KVGT 222320Z 2300/2324 22011G17KT P6SM VCSH FEW090 SCT110 BKN180
     FM230100 32011G17KT P6SM SCT090 BKN110
     FM230500 VRB06KT P6SM FEW090 BKN110
     FM231600 14006KT P6SM BKN090
     FM232100 23010G17KT P6SM BKN090=



000
FTUS45 KVEF 222320
TAFLAS
TAF
KLAS 222320Z 2300/2324 20013G25KT P6SM VCSH FEW090 SCT110 BKN180
     FM230200 31010KT P6SM SCT090 BKN110
     FM230400 20009KT P6SM FEW090 BKN110
     FM231500 16006KT P6SM BKN090
     FM232000 22011G18KT P6SM BKN090=



000
FTUS45 KVEF 222320
TAFLAS
TAF
KLAS 222320Z 2300/2324 20013G25KT P6SM VCSH FEW090 SCT110 BKN180
     FM230200 31010KT P6SM SCT090 BKN110
     FM230400 20009KT P6SM FEW090 BKN110
     FM231500 16006KT P6SM BKN090
     FM232000 22011G18KT P6SM BKN090=



000
FTUS45 KVEF 222320
TAFLAS
TAF
KLAS 222320Z 2300/2324 20013G25KT P6SM VCSH FEW090 SCT110 BKN180
     FM230200 31010KT P6SM SCT090 BKN110
     FM230400 20009KT P6SM FEW090 BKN110
     FM231500 16006KT P6SM BKN090
     FM232000 22011G18KT P6SM BKN090=



000
FTUS45 KVEF 222320
TAFDAG
TAF
KDAG 222320Z 2300/2324 25017G25KT P6SM VCSH FEW040 SCT070 BKN090
      TEMPO 2300/2302 -SHRA SCT040 BKN070
     FM230300 24019KT P6SM SCT100
     FM231500 28014KT P6SM SCT100
     FM232300 26015G25KT P6SM FEW100=



000
FTUS45 KVEF 222320
TAFDAG
TAF
KDAG 222320Z 2300/2324 25017G25KT P6SM VCSH FEW040 SCT070 BKN090
      TEMPO 2300/2302 -SHRA SCT040 BKN070
     FM230300 24019KT P6SM SCT100
     FM231500 28014KT P6SM SCT100
     FM232300 26015G25KT P6SM FEW100=



000
FTUS45 KVEF 222320
TAFVGT
TAF
KVGT 222320Z 2300/2324 22011G17KT P6SM VCSH FEW090 SCT110 BKN180
     FM230100 32011G17KT P6SM SCT090 BKN110
     FM230500 VRB06KT P6SM FEW090 BKN110
     FM231600 14006KT P6SM BKN090
     FM232100 23010G17KT P6SM BKN090=



000
FTUS45 KVEF 222320
TAFBIH
TAF
KBIH 222320Z 2300/2324 33010G17KT P6SM VCSH SCT070 BKN200
     FM230800 34008KT P6SM BKN060
     FM232000 17010KT P6SM FEW060=



000
FTUS45 KVEF 222320
TAFEED
TAF
KEED 222320Z 2300/2324 26010G17KT P6SM VCSH SCT080 BKN110
      TEMPO 2300/2302 -SHRA FEW060 BKN080
     FM230700 29008KT P6SM SCT080 SCT150
     FM231600 16007KT P6SM FEW100 SCT250
     FM231900 21015G23KT P6SM FEW100=



000
FTUS45 KVEF 222320
TAFEED
TAF
KEED 222320Z 2300/2324 26010G17KT P6SM VCSH SCT080 BKN110
      TEMPO 2300/2302 -SHRA FEW060 BKN080
     FM230700 29008KT P6SM SCT080 SCT150
     FM231600 16007KT P6SM FEW100 SCT250
     FM231900 21015G23KT P6SM FEW100=



000
FTUS45 KVEF 222320
TAFLAS
TAF
KLAS 222320Z 2300/2324 20013G25KT P6SM VCSH FEW090 SCT110 BKN180
     FM230200 31010KT P6SM SCT090 BKN110
     FM230400 20009KT P6SM FEW090 BKN110
     FM231500 16006KT P6SM BKN090
     FM232000 22011G18KT P6SM BKN090=



000
FTUS45 KVEF 222320
TAFBIH
TAF
KBIH 222320Z 2300/2324 33010G17KT P6SM VCSH SCT070 BKN200
     FM230800 34008KT P6SM BKN060
     FM232000 17010KT P6SM FEW060=



000
FTUS45 KVEF 222205 AAA
TAFEED
TAF AMD
KEED 222205Z 2222/2318 26010G18KT P6SM VCSH SCT080 BKN100
      TEMPO 2222/2302 -SHRA FEW060 BKN080
     FM230700 29008KT P6SM SCT080 SCT150
     FM231600 16007KT P6SM FEW100 SCT250=



000
FTUS45 KVEF 222203 AAA
TAFBIH
TAF AMD
KBIH 222203Z 2222/2318 VRB06KT P6SM VCSH SCT070 BKN200
     FM230800 34008KT P6SM BKN060=



000
FTUS45 KVEF 222159 AAB
TAFLAS
TAF AMD
KLAS 222159Z 2222/2318 28005KT P6SM VCTS FEW070CB SCT110 BKN180
     FM222215 20013G25KT P6SM VCTS FEW070CB SCT110 BKN180
     FM230200 31010KT P6SM SCT070 BKN120
     FM230400 20009KT P6SM FEW070 BKN110
     FM231500 16006KT P6SM BKN090=



000
FTUS45 KVEF 222159 AAB
TAFLAS
TAF AMD
KLAS 222159Z 2222/2318 28005KT P6SM VCTS FEW070CB SCT110 BKN180
     FM222215 20013G25KT P6SM VCTS FEW070CB SCT110 BKN180
     FM230200 31010KT P6SM SCT070 BKN120
     FM230400 20009KT P6SM FEW070 BKN110
     FM231500 16006KT P6SM BKN090=



000
FTUS45 KVEF 222000 AAA
TAFLAS
TAF AMD
KLAS 222000Z 2220/2318 25015G25KT P6SM VCSH FEW040 SCT070 BKN090
     FM222100 22012G18KT P6SM VCSH SCT070 BKN120
     FM230200 31010KT P6SM SCT070 BKN120
     FM230400 20009KT P6SM FEW070 BKN110
     FM231500 16006KT P6SM BKN090=



000
FTUS45 KVEF 222000 AAA
TAFLAS
TAF AMD
KLAS 222000Z 2220/2318 25015G25KT P6SM VCSH FEW040 SCT070 BKN090
     FM222100 22012G18KT P6SM VCSH SCT070 BKN120
     FM230200 31010KT P6SM SCT070 BKN120
     FM230400 20009KT P6SM FEW070 BKN110
     FM231500 16006KT P6SM BKN090=



000
FTUS45 KVEF 221729
TAFLAS
TAF
KLAS 221729Z 2218/2318 15011KT P6SM FEW070 SCT120 BKN200
     FM221900 16012G18KT P6SM VCSH FEW070 SCT120 BKN200
     FM222100 22012G18KT P6SM VCSH SCT070 BKN120
     FM230200 31010KT P6SM SCT070 BKN120
     FM230400 20009KT P6SM FEW070 BKN110
     FM231500 16006KT P6SM BKN090=



000
FTUS45 KVEF 221729
TAFLAS
TAF
KLAS 221729Z 2218/2318 15011KT P6SM FEW070 SCT120 BKN200
     FM221900 16012G18KT P6SM VCSH FEW070 SCT120 BKN200
     FM222100 22012G18KT P6SM VCSH SCT070 BKN120
     FM230200 31010KT P6SM SCT070 BKN120
     FM230400 20009KT P6SM FEW070 BKN110
     FM231500 16006KT P6SM BKN090=



000
FTUS45 KVEF 221729
TAFLAS
TAF
KLAS 221729Z 2218/2318 15011KT P6SM FEW070 SCT120 BKN200
     FM221900 16012G18KT P6SM VCSH FEW070 SCT120 BKN200
     FM222100 22012G18KT P6SM VCSH SCT070 BKN120
     FM230200 31010KT P6SM SCT070 BKN120
     FM230400 20009KT P6SM FEW070 BKN110
     FM231500 16006KT P6SM BKN090=



000
FTUS45 KVEF 221729
TAFBIH
TAF
KBIH 221729Z 2218/2318 VRB06KT P6SM VCSH SCT060 BKN100
     FM222000 17011G17KT P6SM VCSH SCT060
      TEMPO 2221/2301 VRB15G25KT -TSRA BKN050CB
     FM230200 VRB06KT P6SM VCSH BKN060
     FM230800 34008KT P6SM BKN060=



000
FTUS45 KVEF 221729
TAFDAG
TAF
KDAG 221729Z 2218/2318 25020G30KT P6SM SCT050 BKN150
     FM222000 26017G25KT P6SM VCSH SCT050 BKN100
     FM230300 24019KT P6SM SCT100=



000
FTUS45 KVEF 221729
TAFBIH
TAF
KBIH 221729Z 2218/2318 VRB06KT P6SM VCSH SCT060 BKN100
     FM222000 17011G17KT P6SM VCSH SCT060
      TEMPO 2221/2301 VRB15G25KT -TSRA BKN050CB
     FM230200 VRB06KT P6SM VCSH BKN060
     FM230800 34008KT P6SM BKN060=



000
FTUS45 KVEF 221729
TAFDAG
TAF
KDAG 221729Z 2218/2318 25020G30KT P6SM SCT050 BKN150
     FM222000 26017G25KT P6SM VCSH SCT050 BKN100
     FM230300 24019KT P6SM SCT100=



000
FTUS45 KVEF 221729
TAFVGT
TAF
KVGT 221729Z 2218/2318 15010KT P6SM FEW070 SCT120 BKN200
     FM222100 22011G17KT P6SM VCSH FEW070 SCT120 BKN200
     FM230100 32011G17KT P6SM SCT070 BKN120
     FM230300 VRB06KT P6SM FEW070 BKN110
     FM231600 14006KT P6SM BKN090=



000
FTUS45 KVEF 221729
TAFEED
TAF
KEED 221729Z 2218/2318 20010KT P6SM SCT100 SCT250
     FM222000 22012G20KT P6SM VCSH SCT080 BKN100
      TEMPO 2302/2305 VRB15G25KT -TSRA BKN060CB
     FM230700 29008KT P6SM SCT080 SCT150
     FM231600 16007KT P6SM FEW100 SCT250=



000
FTUS45 KVEF 221729
TAFVGT
TAF
KVGT 221729Z 2218/2318 15010KT P6SM FEW070 SCT120 BKN200
     FM222100 22011G17KT P6SM VCSH FEW070 SCT120 BKN200
     FM230100 32011G17KT P6SM SCT070 BKN120
     FM230300 VRB06KT P6SM FEW070 BKN110
     FM231600 14006KT P6SM BKN090=



000
FTUS45 KVEF 221729
TAFEED
TAF
KEED 221729Z 2218/2318 20010KT P6SM SCT100 SCT250
     FM222000 22012G20KT P6SM VCSH SCT080 BKN100
      TEMPO 2302/2305 VRB15G25KT -TSRA BKN060CB
     FM230700 29008KT P6SM SCT080 SCT150
     FM231600 16007KT P6SM FEW100 SCT250=



000
FTUS45 KVEF 221729
TAFLAS
TAF
KLAS 221729Z 2218/2318 15011KT P6SM FEW070 SCT120 BKN200
     FM221900 16012G18KT P6SM VCSH FEW070 SCT120 BKN200
     FM222100 22012G18KT P6SM VCSH SCT070 BKN120
     FM230200 31010KT P6SM SCT070 BKN120
     FM230400 20009KT P6SM FEW070 BKN110
     FM231500 16006KT P6SM BKN090=



000
FTUS45 KVEF 221434 AAA
TAFLAS
TAF AMD
KLAS 221434Z 2215/2312 16012KT P6SM SCT140 BKN200
     FM221900 16012G18KT P6SM VCSH SCT080 BKN140
     FM222100 22012G18KT P6SM VCSH BKN080 BKN140
     FM230400 20008KT P6SM SCT080 BKN140=



000
FTUS45 KVEF 221434 AAA
TAFLAS
TAF AMD
KLAS 221434Z 2215/2312 16012KT P6SM SCT140 BKN200
     FM221900 16012G18KT P6SM VCSH SCT080 BKN140
     FM222100 22012G18KT P6SM VCSH BKN080 BKN140
     FM230400 20008KT P6SM SCT080 BKN140=



000
FTUS45 KVEF 221120
TAFLAS
TAF
KLAS 221120Z 2212/2312 18012KT P6SM BKN150
     FM221900 18010KT P6SM VCSH SCT080 BKN150
      TEMPO 2222/2302 VRB15G25KT -TSRA BKN070CB
     FM230400 20008KT P6SM SCT080 BKN150=



000
FTUS45 KVEF 221120
TAFDAG
TAF
KDAG 221120Z 2212/2312 24018KT P6SM SCT100 BKN150
     FM222000 26015G25KT P6SM VCSH SCT080 BKN100
     FM222300 24022G32KT P6SM VCSH SCT080 BKN100=



000
FTUS45 KVEF 221120
TAFLAS
TAF
KLAS 221120Z 2212/2312 18012KT P6SM BKN150
     FM221900 18010KT P6SM VCSH SCT080 BKN150
      TEMPO 2222/2302 VRB15G25KT -TSRA BKN070CB
     FM230400 20008KT P6SM SCT080 BKN150=



000
FTUS45 KVEF 221120
TAFLAS
TAF
KLAS 221120Z 2212/2312 18012KT P6SM BKN150
     FM221900 18010KT P6SM VCSH SCT080 BKN150
      TEMPO 2222/2302 VRB15G25KT -TSRA BKN070CB
     FM230400 20008KT P6SM SCT080 BKN150=



000
FTUS45 KVEF 221120
TAFBIH
TAF
KBIH 221120Z 2212/2312 VRB05KT P6SM VCSH BKN060 BKN100
      TEMPO 2212/2216 -SHRA BKN050 BKN080
     FM221800 14009KT P6SM VCSH BKN060 BKN100
      TEMPO 2221/2301 VRB15G25KT -TSRA BKN050CB
     FM230200 VRB06KT P6SM VCSH BKN060 BKN100=



000
FTUS45 KVEF 221120
TAFVGT
TAF
KVGT 221120Z 2212/2312 17007KT P6SM BKN150
     FM221900 16010KT P6SM VCSH SCT080 BKN150
      TEMPO 2222/2302 VRB15G25KT -TSRA BKN070CB
     FM230300 22006KT P6SM SCT080 BKN150=



000
FTUS45 KVEF 221120
TAFVGT
TAF
KVGT 221120Z 2212/2312 17007KT P6SM BKN150
     FM221900 16010KT P6SM VCSH SCT080 BKN150
      TEMPO 2222/2302 VRB15G25KT -TSRA BKN070CB
     FM230300 22006KT P6SM SCT080 BKN150=



000
FTUS45 KVEF 221120
TAFLAS
TAF
KLAS 221120Z 2212/2312 18012KT P6SM BKN150
     FM221900 18010KT P6SM VCSH SCT080 BKN150
      TEMPO 2222/2302 VRB15G25KT -TSRA BKN070CB
     FM230400 20008KT P6SM SCT080 BKN150=



000
FTUS45 KVEF 221120
TAFBIH
TAF
KBIH 221120Z 2212/2312 VRB05KT P6SM VCSH BKN060 BKN100
      TEMPO 2212/2216 -SHRA BKN050 BKN080
     FM221800 14009KT P6SM VCSH BKN060 BKN100
      TEMPO 2221/2301 VRB15G25KT -TSRA BKN050CB
     FM230200 VRB06KT P6SM VCSH BKN060 BKN100=



000
FTUS45 KVEF 221120
TAFDAG
TAF
KDAG 221120Z 2212/2312 24018KT P6SM SCT100 BKN150
     FM222000 26015G25KT P6SM VCSH SCT080 BKN100
     FM222300 24022G32KT P6SM VCSH SCT080 BKN100=



000
FTUS45 KVEF 221120
TAFEED
TAF
KEED 221120Z 2212/2312 20008KT P6SM SCT250
     FM222000 22012G20KT P6SM VCSH SCT080 BKN150=



000
FTUS45 KVEF 221120
TAFEED
TAF
KEED 221120Z 2212/2312 20008KT P6SM SCT250
     FM222000 22012G20KT P6SM VCSH SCT080 BKN150=



000
FTUS45 KVEF 220536
TAFBIH
TAF
KBIH 220536Z 2206/2306 36007KT P6SM VCSH SCT060 BKN100
     FM221100 VRB05KT P6SM VCSH BKN060 BKN100
     FM221800 14009KT P6SM VCSH BKN060 BKN100 PROB30 2219/2301
      VRB15G25KT -TSRA BKN050CB
     FM230200 VRB06KT P6SM VCSH BKN060 BKN100=



000
FTUS45 KVEF 220536
TAFLAS
TAF
KLAS 220536Z 2206/2306 20010KT P6SM FEW100 SCT150
     FM221900 18010KT P6SM VCSH SCT080 BKN150 PROB30 2220/2302
      VRB15G25KT -TSRA BKN070CB
     FM230400 20008KT P6SM SCT080 BKN150=



000
FTUS45 KVEF 220536
TAFVGT
TAF
KVGT 220536Z 2206/2306 VRB05KT P6SM FEW100 SCT150
     FM221900 16010KT P6SM VCSH SCT080 BKN150 PROB30 2220/2302
      VRB15G25KT -TSRA BKN070CB
     FM230300 22006KT P6SM SCT080 BKN150=



000
FTUS45 KVEF 220536
TAFDAG
TAF
KDAG 220536Z 2206/2306 25015G25KT P6SM SCT100 BKN150
     FM222000 26015G25KT P6SM VCSH SCT080 BKN100
     FM222300 24022G32KT P6SM VCSH SCT080 BKN100=



000
FTUS45 KVEF 220536
TAFEED
TAF
KEED 220536Z 2206/2306 20012KT P6SM BKN200
     FM222000 22012G20KT P6SM VCSH SCT080 BKN150=



000
FTUS45 KVEF 220536
TAFLAS
TAF
KLAS 220536Z 2206/2306 20010KT P6SM FEW100 SCT150
     FM221900 18010KT P6SM VCSH SCT080 BKN150 PROB30 2220/2302
      VRB15G25KT -TSRA BKN070CB
     FM230400 20008KT P6SM SCT080 BKN150=



000
FTUS45 KVEF 220536
TAFDAG
TAF
KDAG 220536Z 2206/2306 25015G25KT P6SM SCT100 BKN150
     FM222000 26015G25KT P6SM VCSH SCT080 BKN100
     FM222300 24022G32KT P6SM VCSH SCT080 BKN100=



000
FTUS45 KVEF 220536
TAFEED
TAF
KEED 220536Z 2206/2306 20012KT P6SM BKN200
     FM222000 22012G20KT P6SM VCSH SCT080 BKN150=



000
FTUS45 KVEF 220536
TAFVGT
TAF
KVGT 220536Z 2206/2306 VRB05KT P6SM FEW100 SCT150
     FM221900 16010KT P6SM VCSH SCT080 BKN150 PROB30 2220/2302
      VRB15G25KT -TSRA BKN070CB
     FM230300 22006KT P6SM SCT080 BKN150=



000
FTUS45 KVEF 220536
TAFBIH
TAF
KBIH 220536Z 2206/2306 36007KT P6SM VCSH SCT060 BKN100
     FM221100 VRB05KT P6SM VCSH BKN060 BKN100
     FM221800 14009KT P6SM VCSH BKN060 BKN100 PROB30 2219/2301
      VRB15G25KT -TSRA BKN050CB
     FM230200 VRB06KT P6SM VCSH BKN060 BKN100=



000
FTUS45 KVEF 220252 AAB
TAFLAS
TAF AMD
KLAS 220252Z 2203/2224 22012KT P6SM VCSH FEW100 BKN150
     FM220500 20010KT P6SM FEW100 BKN150
     FM221800 17010KT P6SM VCSH SCT100 BKN150 PROB30 2218/2224
      VRB15G25KT -TSRA BKN080CB=



000
FTUS45 KVEF 220252 AAB
TAFLAS
TAF AMD
KLAS 220252Z 2203/2224 22012KT P6SM VCSH FEW100 BKN150
     FM220500 20010KT P6SM FEW100 BKN150
     FM221800 17010KT P6SM VCSH SCT100 BKN150 PROB30 2218/2224
      VRB15G25KT -TSRA BKN080CB=



000
FTUS45 KVEF 220252 AAB
TAFLAS
TAF AMD
KLAS 220252Z 2203/2224 22012KT P6SM VCSH FEW100 BKN150
     FM220500 20010KT P6SM FEW100 BKN150
     FM221800 17010KT P6SM VCSH SCT100 BKN150 PROB30 2218/2224
      VRB15G25KT -TSRA BKN080CB=



000
FTUS45 KVEF 220114 AAB
TAFVGT
TAF AMD
KVGT 220114Z 2201/2224 27013G22KT P6SM VCSH BKN100 BKN200
     FM220400 20009KT P6SM SCT100 BKN150
     FM221800 16010KT P6SM VCSH SCT100 BKN150 PROB30 2218/2224
      VRB15G25KT -TSRA BKN080CB=



000
FTUS45 KVEF 220111 AAA
TAFLAS
TAF AMD
KLAS 220111Z 2201/2224 25014G20KT P6SM VCSH SCT100 BKN150
     FM220400 20008KT P6SM SCT100 BKN150
     FM221800 17010KT P6SM VCSH SCT100 BKN150 PROB30 2218/2224
      VRB15G25KT -TSRA BKN080CB=



000
FTUS45 KVEF 220111 AAA
TAFLAS
TAF AMD
KLAS 220111Z 2201/2224 25014G20KT P6SM VCSH SCT100 BKN150
     FM220400 20008KT P6SM SCT100 BKN150
     FM221800 17010KT P6SM VCSH SCT100 BKN150 PROB30 2218/2224
      VRB15G25KT -TSRA BKN080CB=



000
FTUS45 KVEF 212340 CCA
TAFLAS
TAF COR
KLAS 212340Z 2200/2224 20014G22KT P6SM VCSH SCT100 BKN150
     FM220400 20008KT P6SM SCT100 BKN150
     FM221800 17010KT P6SM VCSH SCT100 BKN150 PROB30 2218/2224
      VRB15G25KT -TSRA BKN080CB=



000
FTUS45 KVEF 212340 CCA
TAFLAS
TAF COR
KLAS 212340Z 2200/2224 20014G22KT P6SM VCSH SCT100 BKN150
     FM220400 20008KT P6SM SCT100 BKN150
     FM221800 17010KT P6SM VCSH SCT100 BKN150 PROB30 2218/2224
      VRB15G25KT -TSRA BKN080CB=



000
FTUS45 KVEF 212326 AAA
TAFVGT
TAF AMD
KVGT 212326Z 2123/2224 21013G22KT P6SM VCSH BKN100 BKN200
     FM220400 20009KT P6SM SCT100 BKN150
     FM221800 16010KT P6SM VCSH SCT100 BKN150 PROB30 2218/2224
      VRB15G25KT -TSRA BKN080CB=



000
FTUS45 KVEF 212326 AAA
TAFVGT
TAF AMD
KVGT 212326Z 2123/2224 21013G22KT P6SM VCSH BKN100 BKN200
     FM220400 20009KT P6SM SCT100 BKN150
     FM221800 16010KT P6SM VCSH SCT100 BKN150 PROB30 2218/2224
      VRB15G25KT -TSRA BKN080CB=



000
FTUS45 KVEF 212320
TAFVGT
TAF
KVGT 212320Z 2200/2224 15011G19KT P6SM VCSH SCT100 BKN150
     FM220400 20009KT P6SM SCT100 BKN150
     FM221800 16010KT P6SM VCSH SCT100 BKN150 PROB30 2218/2224
      VRB15G25KT -TSRA BKN080CB=



000
FTUS45 KVEF 212320
TAFBIH
TAF
KBIH 212320Z 2200/2224 17013G23KT P6SM VCSH BKN090
      TEMPO 2200/2204 -SHRA OVC080
     FM220400 17010KT P6SM VCSH SCT060 BKN100
     FM220900 VRB05KT P6SM VCSH SCT060 BKN100
     FM221800 14009KT P6SM VCSH SCT060 BKN100 PROB30 2218/2224
      VRB15G25KT -TSRA BKN060CB=



000
FTUS45 KVEF 212320
TAFEED
TAF
KEED 212320Z 2200/2224 19012G20KT P6SM FEW120 BKN200
     FM220400 24010KT P6SM BKN200
     FM222000 22010KT P6SM VCSH SCT080 BKN150=



000
FTUS45 KVEF 212320
TAFDAG
TAF
KDAG 212320Z 2200/2224 25015G25KT P6SM SCT100 BKN200
     FM221000 26015G25KT P6SM SCT100 BKN150
     FM222000 26015G25KT P6SM VCSH SCT080 BKN150=



000
FTUS45 KVEF 212320
TAFLAS
TAF
KLAS 212320Z 2200/2224 18012G20KT P6SM VCSH SCT100 BKN150
     FM220400 20008KT P6SM SCT100 BKN150
     FM221800 17010KT P6SM VCSH SCT100 BKN150 PROB30 2218/2224
      VRB15G25KT -TSRA BKN080CB=



000
FTUS45 KVEF 212320
TAFBIH
TAF
KBIH 212320Z 2200/2224 16013G23KT P6SM VCSH BKN090
      TEMPO 2200/2204 -SHRA OVC080
     FM220400 17010KT P6SM VCSH SCT060 BKN100
     FM220900 VRB05KT P6SM VCSH SCT060 BKN100
     FM221800 14009KT P6SM VCSH SCT060 BKN100 PROB30 2218/2224
      VRB15G25KT -TSRA BKN060CB=



000
FTUS45 KVEF 212320
TAFDAG
TAF
KDAG 212320Z 2200/2224 25015G25KT P6SM SCT100 BKN200
     FM221000 26015G25KT P6SM SCT100 BKN150
     FM222000 26015G25KT P6SM VCSH SCT080 BKN150=



000
FTUS45 KVEF 212320
TAFBIH
TAF
KBIH 212320Z 2200/2224 17013G23KT P6SM VCSH BKN090
      TEMPO 2200/2204 -SHRA OVC080
     FM220400 17010KT P6SM VCSH SCT060 BKN100
     FM220900 VRB05KT P6SM VCSH SCT060 BKN100
     FM221800 14009KT P6SM VCSH SCT060 BKN100 PROB30 2218/2224
      VRB15G25KT -TSRA BKN060CB=



000
FTUS45 KVEF 212320
TAFEED
TAF
KEED 212320Z 2200/2224 19012G20KT P6SM FEW120 BKN200
     FM220400 24010KT P6SM BKN200
     FM222000 22010KT P6SM VCSH SCT080 BKN150=



000
FTUS45 KVEF 212320
TAFLAS
TAF
KLAS 212320Z 2200/2224 20014G22KT P6SM VCSH SCT100 BKN150
     FM220400 20008KT P6SM SCT100 BKN150
     FM221800 17010KT P6SM VCSH SCT100 BKN150 PROB30 2218/2224
      VRB15G25KT -TSRA BKN080CB=



000
FTUS45 KVEF 212320
TAFBIH
TAF
KBIH 212320Z 2200/2224 16013G23KT P6SM VCSH BKN090
      TEMPO 2200/2204 -SHRA OVC080
     FM220400 17010KT P6SM VCSH SCT060 BKN100
     FM220900 VRB05KT P6SM VCSH SCT060 BKN100
     FM221800 14009KT P6SM VCSH SCT060 BKN100 PROB30 2218/2224
      VRB15G25KT -TSRA BKN060CB=



000
FTUS45 KVEF 212320
TAFLAS
TAF
KLAS 212320Z 2200/2224 20014G22KT P6SM VCSH SCT100 BKN150
     FM220400 20008KT P6SM SCT100 BKN150
     FM221800 17010KT P6SM VCSH SCT100 BKN150 PROB30 2218/2224
      VRB15G25KT -TSRA BKN080CB=



000
FTUS45 KVEF 212320
TAFVGT
TAF
KVGT 212320Z 2200/2224 16011G19KT P6SM VCSH SCT100 BKN150
     FM220400 20009KT P6SM SCT100 BKN150
     FM221800 16010KT P6SM VCSH SCT100 BKN150 PROB30 2218/2224
      VRB15G25KT -TSRA BKN080CB=



000
FTUS45 KVEF 212320
TAFLAS
TAF
KLAS 212320Z 2200/2224 18012G20KT P6SM VCSH SCT100 BKN150
     FM220400 20008KT P6SM SCT100 BKN150
     FM221800 17010KT P6SM VCSH SCT100 BKN150 PROB30 2218/2224
      VRB15G25KT -TSRA BKN080CB=



000
FTUS45 KVEF 212320
TAFLAS
TAF
KLAS 212320Z 2200/2224 18012G20KT P6SM VCSH SCT100 BKN150
     FM220400 20008KT P6SM SCT100 BKN150
     FM221800 17010KT P6SM VCSH SCT100 BKN150 PROB30 2218/2224
      VRB15G25KT -TSRA BKN080CB=



000
FTUS45 KVEF 212239 AAC
TAFLAS
TAF AMD
KLAS 212239Z 2123/2218 19012G20KT P6SM VCSH SCT100 BKN150
     FM220400 20010KT P6SM SCT090 BKN150=



000
FTUS45 KVEF 212239 AAC
TAFLAS
TAF AMD
KLAS 212239Z 2123/2218 19012G20KT P6SM VCSH SCT100 BKN150
     FM220400 20010KT P6SM SCT090 BKN150=



000
FTUS45 KVEF 212239 AAC
TAFLAS
TAF AMD
KLAS 212239Z 2123/2218 19012G20KT P6SM VCSH SCT100 BKN150
     FM220400 20010KT P6SM SCT090 BKN150=



000
FTUS45 KVEF 212239 AAC
TAFLAS
TAF AMD
KLAS 212239Z 2123/2218 19012G20KT P6SM VCSH SCT100 BKN150
     FM220400 20010KT P6SM SCT090 BKN150=



000
FTUS45 KVEF 212101 AAB
TAFLAS
TAF AMD
KLAS 212101Z 2121/2218 15012G20KT P6SM SCT090 BKN150
     FM220300 20008KT P6SM SCT090 BKN150=



000
FTUS45 KVEF 212101 AAB
TAFLAS
TAF AMD
KLAS 212101Z 2121/2218 15012G20KT P6SM SCT090 BKN150
     FM220300 20008KT P6SM SCT090 BKN150=



000
FTUS45 KVEF 212101 AAB
TAFLAS
TAF AMD
KLAS 212101Z 2121/2218 15012G20KT P6SM SCT090 BKN150
     FM220300 20008KT P6SM SCT090 BKN150=



000
FTUS45 KVEF 212101 AAB
TAFLAS
TAF AMD
KLAS 212101Z 2121/2218 15012G20KT P6SM SCT090 BKN150
     FM220300 20008KT P6SM SCT090 BKN150=



000
FTUS45 KVEF 211905 AAA
TAFVGT
TAF AMD
KVGT 211905Z 2119/2218 15013G22KT P6SM SCT090 BKN150
     FM220300 19009KT P6SM SCT090 BKN150=



000
FTUS45 KVEF 211905 AAA
TAFVGT
TAF AMD
KVGT 211905Z 2119/2218 15013G22KT P6SM SCT090 BKN150
     FM220300 19009KT P6SM SCT090 BKN150=



000
FTUS45 KVEF 211823 AAA
TAFLAS
TAF AMD
KLAS 211823Z 2118/2218 15010G18KT P6SM SCT090 BKN150
     FM220300 20008KT P6SM SCT090 BKN150=



000
FTUS45 KVEF 211823 AAA
TAFLAS
TAF AMD
KLAS 211823Z 2118/2218 15010G18KT P6SM SCT090 BKN150
     FM220300 20008KT P6SM SCT090 BKN150=



000
FTUS45 KVEF 211728
TAFLAS
TAF
KLAS 211728Z 2118/2218 11007KT P6SM FEW090 BKN150
     FM212200 17010KT P6SM SCT090 BKN150
     FM220300 20008KT P6SM SCT090 BKN150=



000
FTUS45 KVEF 211728
TAFVGT
TAF
KVGT 211728Z 2118/2218 13009KT P6SM FEW090 BKN150
     FM212100 15011KT P6SM SCT090 BKN150
     FM220300 19009KT P6SM SCT090 BKN150=



000
FTUS45 KVEF 211728
TAFBIH
TAF
KBIH 211728Z 2118/2218 VRB05KT P6SM BKN100
     FM211900 17012G20KT P6SM VCSH BKN090
     FM212300 15018G25KT P6SM VCSH SCT060 BKN090
      TEMPO 2123/2203 -SHRA BKN040 BKN070
     FM220600 VRB06KT P6SM VCSH SCT060 BKN100=



000
FTUS45 KVEF 211728
TAFDAG
TAF
KDAG 211728Z 2118/2218 28014G20KT P6SM FEW100 BKN200
     FM220100 24017G25KT P6SM SCT100 BKN200
     FM220600 26014KT P6SM SCT100 BKN200=



000
FTUS45 KVEF 211728
TAFEED
TAF
KEED 211728Z 2118/2218 17010KT P6SM FEW100 BKN200
     FM211900 19012G20KT P6SM FEW100 BKN200
     FM220400 24010KT P6SM SCT100 BKN200=



000
FTUS45 KVEF 211728
TAFLAS
TAF
KLAS 211728Z 2118/2218 11007KT P6SM FEW090 BKN150
     FM212200 17010KT P6SM SCT090 BKN150
     FM220300 20008KT P6SM SCT090 BKN150=



000
FTUS45 KVEF 211447 AAA
TAFLAS
TAF AMD
KLAS 211447Z 2115/2212 VRB05KT P6SM FEW090 SCT150 BKN220
     FM211700 13007KT P6SM FEW090 SCT150 BKN220
     FM212100 17010KT P6SM VCSH BKN090
     FM220300 20008KT P6SM SCT090 BKN150=



000
FTUS45 KVEF 211447 AAA
TAFLAS
TAF AMD
KLAS 211447Z 2115/2212 VRB05KT P6SM FEW090 SCT150 BKN220
     FM211700 13007KT P6SM FEW090 SCT150 BKN220
     FM212100 17010KT P6SM VCSH BKN090
     FM220300 20008KT P6SM SCT090 BKN150=



000
FTUS45 KVEF 211447 AAA
TAFLAS
TAF AMD
KLAS 211447Z 2115/2212 VRB05KT P6SM FEW090 SCT150 BKN220
     FM211700 13007KT P6SM FEW090 SCT150 BKN220
     FM212100 17010KT P6SM VCSH BKN090
     FM220300 20008KT P6SM SCT090 BKN150=



000
FTUS45 KVEF 211120
TAFEED
TAF
KEED 211120Z 2112/2212 24007KT P6SM BKN150
     FM211800 19012G20KT P6SM SCT150 BKN250=



000
FTUS45 KVEF 211120
TAFBIH
TAF
KBIH 211120Z 2112/2212 30006KT P6SM SCT110 SCT250
     FM211500 VRB04KT P6SM BKN100
     FM211900 17012G20KT P6SM VCSH BKN090
     FM212300 15018G25KT P6SM VCSH SCT060 BKN090
      TEMPO 2123/2203 -SHRA BKN040 BKN070
     FM220600 VRB06KT P6SM FEW060 BKN100=



000
FTUS45 KVEF 211120
TAFLAS
TAF
KLAS 211120Z 2112/2212 20009KT P6SM FEW150 BKN250
     FM211800 15009KT P6SM FEW090 BKN150
     FM212100 17012G20KT P6SM VCSH BKN090
     FM220300 20008KT P6SM SCT090 BKN250=



000
FTUS45 KVEF 211120
TAFVGT
TAF
KVGT 211120Z 2112/2212 VRB04KT P6SM FEW150 BKN250
     FM211600 11009KT P6SM BKN150
     FM211900 14010G18KT P6SM FEW090 BKN150
     FM212100 16010G18KT P6SM VCSH BKN090
     FM220300 19009KT P6SM SCT090 BKN250=



000
FTUS45 KVEF 211120
TAFLAS
TAF
KLAS 211120Z 2112/2212 20009KT P6SM FEW150 BKN250
     FM211800 15009KT P6SM FEW090 BKN150
     FM212100 17012G20KT P6SM VCSH BKN090
     FM220300 20008KT P6SM SCT090 BKN250=



000
FTUS45 KVEF 211120
TAFDAG
TAF
KDAG 211120Z 2112/2212 28014KT P6SM SCT150 BKN250
     FM211900 27014G20KT P6SM FEW100 BKN150
     FM220100 24017G25KT P6SM SCT100
     FM220600 26014KT P6SM FEW100 BKN250=



000
FTUS45 KVEF 211120
TAFLAS
TAF
KLAS 211120Z 2112/2212 20009KT P6SM FEW150 BKN250
     FM211800 15009KT P6SM FEW090 BKN150
     FM212100 17012G20KT P6SM VCSH BKN090
     FM220300 20008KT P6SM SCT090 BKN250=



000
FTUS45 KVEF 211120
TAFEED
TAF
KEED 211120Z 2112/2212 24007KT P6SM BKN150
     FM211800 19012G20KT P6SM SCT150 BKN250=



000
FTUS45 KVEF 211120
TAFDAG
TAF
KDAG 211120Z 2112/2212 28014KT P6SM SCT150 BKN250
     FM211900 27014G20KT P6SM FEW100 BKN150
     FM220100 24017G25KT P6SM SCT100
     FM220600 26014KT P6SM FEW100 BKN250=



000
FTUS45 KVEF 211120
TAFBIH
TAF
KBIH 211120Z 2112/2212 30006KT P6SM SCT110 SCT250
     FM211500 VRB04KT P6SM BKN100
     FM211900 17012G20KT P6SM VCSH BKN090
     FM212300 15018G25KT P6SM VCSH SCT060 BKN090
      TEMPO 2123/2203 -SHRA BKN040 BKN070
     FM220600 VRB06KT P6SM FEW060 BKN100=



000
FTUS45 KVEF 211120
TAFLAS
TAF
KLAS 211120Z 2112/2212 20009KT P6SM FEW150 BKN250
     FM211800 15009KT P6SM FEW090 BKN150
     FM212100 17012G20KT P6SM VCSH BKN090
     FM220300 20008KT P6SM SCT090 BKN250=



000
FTUS45 KVEF 211120
TAFVGT
TAF
KVGT 211120Z 2112/2212 VRB04KT P6SM FEW150 BKN250
     FM211600 11009KT P6SM BKN150
     FM211900 14010G18KT P6SM FEW090 BKN150
     FM212100 16010G18KT P6SM VCSH BKN090
     FM220300 19009KT P6SM SCT090 BKN250=



000
FTUS45 KVEF 210845 AAA
TAFLAS
TAF AMD
KLAS 210845Z 2109/2206 20009KT P6SM BKN250
     FM211800 15009G18KT P6SM SCT090 BKN150
     FM212100 17012G20KT P6SM VCSH BKN090
     FM220400 20008KT P6SM SCT090 BKN250=



000
FTUS45 KVEF 210845 AAA
TAFLAS
TAF AMD
KLAS 210845Z 2109/2206 20009KT P6SM BKN250
     FM211800 15009G18KT P6SM SCT090 BKN150
     FM212100 17012G20KT P6SM VCSH BKN090
     FM220400 20008KT P6SM SCT090 BKN250=



000
FTUS45 KVEF 210845 AAA
TAFLAS
TAF AMD
KLAS 210845Z 2109/2206 20009KT P6SM BKN250
     FM211800 15009G18KT P6SM SCT090 BKN150
     FM212100 17012G20KT P6SM VCSH BKN090
     FM220400 20008KT P6SM SCT090 BKN250=



000
FTUS45 KVEF 210845 AAA
TAFLAS
TAF AMD
KLAS 210845Z 2109/2206 20009KT P6SM BKN250
     FM211800 15009G18KT P6SM SCT090 BKN150
     FM212100 17012G20KT P6SM VCSH BKN090
     FM220400 20008KT P6SM SCT090 BKN250=



000
FTUS45 KVEF 210539
TAFVGT
TAF
KVGT 210539Z 2106/2206 20006KT P6SM BKN250
     FM211600 11009KT P6SM FEW090 BKN150
     FM211900 14010G18KT P6SM SCT090 BKN150
     FM212100 16010G18KT P6SM VCSH SCT090 BKN120
     FM220400 19009KT P6SM SCT120 BKN250=



000
FTUS45 KVEF 210539
TAFLAS
TAF
KLAS 210539Z 2106/2206 20009KT P6SM BKN250
     FM211800 15009G18KT P6SM SCT090 BKN150
     FM212100 17012G20KT P6SM VCSH BKN090
     FM220400 20008KT P6SM SCT090 BKN250=



000
FTUS45 KVEF 210539
TAFBIH
TAF
KBIH 210539Z 2106/2206 30006KT P6SM BKN110
     FM210900 VRB04KT P6SM SCT110 BKN250
     FM211500 VRB04KT P6SM BKN100
     FM211800 17012G20KT P6SM VCSH BKN090
     FM212300 15018G25KT P6SM VCSH BKN060 BKN090
      TEMPO 2123/2203 -SHRA BKN040=



000
FTUS45 KVEF 210539
TAFLAS
TAF
KLAS 210539Z 2106/2206 20009KT P6SM BKN250
     FM211800 15009G18KT P6SM SCT090 BKN150
     FM212100 17012G20KT P6SM VCSH BKN090
     FM220400 20008KT P6SM SCT090 BKN250=



000
FTUS45 KVEF 210539
TAFEED
TAF
KEED 210539Z 2106/2206 24009KT P6SM BKN250
     FM211800 19012G20KT P6SM SCT150 BKN250=



000
FTUS45 KVEF 210539
TAFDAG
TAF
KDAG 210539Z 2106/2206 27014KT P6SM BKN250
     FM211200 27012KT P6SM SCT150 BKN250
     FM211900 27012G18KT P6SM FEW120 BKN250
     FM220100 24017G25KT P6SM SCT100 BKN250=



000
FTUS45 KVEF 210248 AAD
TAFLAS
TAF AMD
KLAS 210248Z 2103/2124 18012G20KT P6SM FEW120
     FM210400 21009KT P6SM SCT250
     FM210900 VRB06KT P6SM FEW120 BKN150
     FM211600 15009G18KT P6SM SCT090 BKN120
     FM212100 16012G20KT P6SM VCSH BKN090=



000
FTUS45 KVEF 210248 AAD
TAFLAS
TAF AMD
KLAS 210248Z 2103/2124 18012G20KT P6SM FEW120
     FM210400 21009KT P6SM SCT250
     FM210900 VRB06KT P6SM FEW120 BKN150
     FM211600 15009G18KT P6SM SCT090 BKN120
     FM212100 16012G20KT P6SM VCSH BKN090=



000
FTUS45 KVEF 210248 AAD
TAFLAS
TAF AMD
KLAS 210248Z 2103/2124 18012G20KT P6SM FEW120
     FM210400 21009KT P6SM SCT250
     FM210900 VRB06KT P6SM FEW120 BKN150
     FM211600 15009G18KT P6SM SCT090 BKN120
     FM212100 16012G20KT P6SM VCSH BKN090=



000
FTUS45 KVEF 210244 AAC
TAFLAS
TAF AMD
KLAS 210244Z 2103/2124 18010KT P6SM FEW120 FEW250
     FM210500 20006KT P6SM FEW120 BKN150
     FM211600 15009G18KT P6SM SCT090 BKN120
     FM212100 16012G20KT P6SM VCSH BKN090=



000
FTUS45 KVEF 210244 AAC
TAFLAS
TAF AMD
KLAS 210244Z 2103/2124 18010KT P6SM FEW120 FEW250
     FM210500 20006KT P6SM FEW120 BKN150
     FM211600 15009G18KT P6SM SCT090 BKN120
     FM212100 16012G20KT P6SM VCSH BKN090=



000
FTUS45 KVEF 210130 AAB
TAFLAS
TAF AMD
KLAS 210130Z 2102/2124 21009KT P6SM FEW120 FEW250
     FM210900 VRB06KT P6SM FEW120 BKN150
     FM211600 15009G18KT P6SM SCT090 BKN120
     FM212100 16012G20KT P6SM VCSH BKN090=



000
FTUS45 KVEF 210057 AAA
TAFLAS
TAF AMD
KLAS 210057Z 2101/2124 16012G18KT P6SM FEW120 FEW250
     FM210200 16009KT P6SM FEW120 FEW250
     FM210400 21009KT P6SM FEW250
     FM210900 VRB06KT P6SM FEW120 BKN150
     FM211600 15009G18KT P6SM SCT090 BKN120
     FM212100 16012G20KT P6SM VCSH BKN090=



000
FTUS45 KVEF 210057 AAA
TAFLAS
TAF AMD
KLAS 210057Z 2101/2124 16012G18KT P6SM FEW120 FEW250
     FM210200 16009KT P6SM FEW120 FEW250
     FM210400 21009KT P6SM FEW250
     FM210900 VRB06KT P6SM FEW120 BKN150
     FM211600 15009G18KT P6SM SCT090 BKN120
     FM212100 16012G20KT P6SM VCSH BKN090=



000
FTUS45 KVEF 210057 AAA
TAFLAS
TAF AMD
KLAS 210057Z 2101/2124 16012G18KT P6SM FEW120 FEW250
     FM210200 16009KT P6SM FEW120 FEW250
     FM210400 21009KT P6SM FEW250
     FM210900 VRB06KT P6SM FEW120 BKN150
     FM211600 15009G18KT P6SM SCT090 BKN120
     FM212100 16012G20KT P6SM VCSH BKN090=



000
FTUS45 KVEF 210057 AAA
TAFLAS
TAF AMD
KLAS 210057Z 2101/2124 16012G18KT P6SM FEW120 FEW250
     FM210200 16009KT P6SM FEW120 FEW250
     FM210400 21009KT P6SM FEW250
     FM210900 VRB06KT P6SM FEW120 BKN150
     FM211600 15009G18KT P6SM SCT090 BKN120
     FM212100 16012G20KT P6SM VCSH BKN090=



000
FTUS45 KVEF 202320
TAFDAG
TAF
KDAG 202320Z 2100/2124 23012KT P6SM FEW120
     FM210600 27012KT P6SM FEW250
     FM211000 27012KT P6SM BKN250
     FM211900 27014G22KT P6SM FEW120 SCT250=



000
FTUS45 KVEF 202320
TAFVGT
TAF
KVGT 202320Z 2100/2124 20008KT P6SM FEW100 FEW250
     FM210300 VRB06KT P6SM FEW250
     FM210900 VRB05KT P6SM FEW120 BKN150
     FM211600 11009KT P6SM SCT090 BKN120
     FM212100 15009KT P6SM VCSH BKN100=



000
FTUS45 KVEF 202320
TAFLAS
TAF
KLAS 202320Z 2100/2124 17007KT P6SM FEW100 FEW250
     FM210300 20009KT P6SM FEW250
     FM210900 VRB06KT P6SM FEW120 BKN150
     FM211600 15009G18KT P6SM SCT090 BKN120
     FM212100 16012G20KT P6SM VCSH BKN090=



000
FTUS45 KVEF 202320
TAFDAG
TAF
KDAG 202320Z 2100/2124 23012KT P6SM FEW120
     FM210600 27012KT P6SM FEW250
     FM211000 27012KT P6SM BKN250
     FM211900 27014G22KT P6SM FEW120 SCT250=



000
FTUS45 KVEF 202320
TAFLAS
TAF
KLAS 202320Z 2100/2124 17007KT P6SM FEW100 FEW250
     FM210300 20009KT P6SM FEW250
     FM210900 VRB06KT P6SM FEW120 BKN150
     FM211600 15009G18KT P6SM SCT090 BKN120
     FM212100 16012G20KT P6SM VCSH BKN090=



000
FTUS45 KVEF 202320
TAFEED
TAF
KEED 202320Z 2100/2124 20012G20KT P6SM FEW250
     FM210700 23010KT P6SM BKN250
     FM211800 19012G20KT P6SM SCT250=



000
FTUS45 KVEF 202320
TAFBIH
TAF
KBIH 202320Z 2100/2124 16013G23KT P6SM VCSH SCT070 BKN090
     FM210300 17010KT P6SM SCT090 BKN150
     FM210900 33009KT P6SM BKN120
     FM211800 18012G20KT P6SM VCSH BKN090=



000
FTUS45 KVEF 202320
TAFVGT
TAF
KVGT 202320Z 2100/2124 20008KT P6SM FEW100 FEW250
     FM210300 VRB06KT P6SM FEW250
     FM210900 VRB05KT P6SM FEW120 BKN150
     FM211600 11009KT P6SM SCT090 BKN120
     FM212100 15009KT P6SM VCSH BKN100=



000
FTUS45 KVEF 202320
TAFEED
TAF
KEED 202320Z 2100/2124 20012G20KT P6SM FEW250
     FM210700 23010KT P6SM BKN250
     FM211800 19012G20KT P6SM SCT250=



000
FTUS45 KVEF 202320
TAFBIH
TAF
KBIH 202320Z 2100/2124 16013G23KT P6SM VCSH SCT070 BKN090
     FM210300 17010KT P6SM SCT090 BKN150
     FM210900 33009KT P6SM BKN120
     FM211800 18012G20KT P6SM VCSH BKN090=



000
FTUS45 KVEF 202320
TAFLAS
TAF
KLAS 202320Z 2100/2124 17007KT P6SM FEW100 FEW250
     FM210300 20009KT P6SM FEW250
     FM210900 VRB06KT P6SM FEW120 BKN150
     FM211600 15009G18KT P6SM SCT090 BKN120
     FM212100 16012G20KT P6SM VCSH BKN090=



000
FTUS45 KVEF 202136 AAE
TAFLAS
TAF AMD
KLAS 202136Z 2022/2118 17012G20KT P6SM FEW120 SCT250
     FM210300 20010KT P6SM FEW100 SCT250=



000
FTUS45 KVEF 202136 AAE
TAFLAS
TAF AMD
KLAS 202136Z 2022/2118 17012G20KT P6SM FEW120 SCT250
     FM210300 20010KT P6SM FEW100 SCT250=



000
FTUS45 KVEF 202136 AAE
TAFLAS
TAF AMD
KLAS 202136Z 2022/2118 17012G20KT P6SM FEW120 SCT250
     FM210300 20010KT P6SM FEW100 SCT250=



000
FTUS45 KVEF 202136 AAE
TAFLAS
TAF AMD
KLAS 202136Z 2022/2118 17012G20KT P6SM FEW120 SCT250
     FM210300 20010KT P6SM FEW100 SCT250=



000
FTUS45 KVEF 202118 AAB
TAFVGT
TAF AMD
KVGT 202118Z 2021/2118 15009KT P6SM FEW100 SCT250
     FM202300 20012KT P6SM FEW100 FEW250
     FM210300 20010KT P6SM FEW100 SCT250=



000
FTUS45 KVEF 202043 AAD
TAFLAS
TAF AMD
KLAS 202043Z 2021/2118 15012G24KT P6SM FEW120 BKN200
     FM202300 18014G26KT P6SM FEW120 SCT250
     FM210300 20010KT P6SM FEW100 SCT250=



000
FTUS45 KVEF 202043 AAD
TAFLAS
TAF AMD
KLAS 202043Z 2021/2118 15012G24KT P6SM FEW120 BKN200
     FM202300 18014G26KT P6SM FEW120 SCT250
     FM210300 20010KT P6SM FEW100 SCT250=



000
FTUS45 KVEF 202014 AAA
TAFEED
TAF AMD
KEED 202014Z 2020/2118 18012G20KT P6SM SCT250
     FM210200 23010KT P6SM FEW250=



000
FTUS45 KVEF 201952 AAC
TAFLAS
TAF AMD
KLAS 201952Z 2020/2118 15012G24KT P6SM OVC250
     FM202300 18014G23KT P6SM FEW100 BKN250
     FM210300 20010KT P6SM FEW100 SCT250=



000
FTUS45 KVEF 201952 AAC
TAFLAS
TAF AMD
KLAS 201952Z 2020/2118 15012G24KT P6SM OVC250
     FM202300 18014G23KT P6SM FEW100 BKN250
     FM210300 20010KT P6SM FEW100 SCT250=



000
FTUS45 KVEF 201821 AAB
TAFLAS
TAF AMD
KLAS 201821Z 2018/2118 15012G24KT P6SM OVC250
     FM202000 18014G23KT P6SM FEW100 BKN250
     FM210300 20010KT P6SM FEW100 SCT250=



000
FTUS45 KVEF 201821 AAB
TAFLAS
TAF AMD
KLAS 201821Z 2018/2118 15012G24KT P6SM OVC250
     FM202000 18014G23KT P6SM FEW100 BKN250
     FM210300 20010KT P6SM FEW100 SCT250=



000
FTUS45 KVEF 201800 AAA
TAFVGT
TAF AMD
KVGT 201800Z 2018/2118 15012G21KT P6SM BKN250
     FM202300 20012G20KT P6SM FEW100 SCT250
     FM210300 20010KT P6SM FEW100 SCT250=



000
FTUS45 KVEF 201800 AAA
TAFVGT
TAF AMD
KVGT 201800Z 2018/2118 15012G21KT P6SM BKN250
     FM202300 20012G20KT P6SM FEW100 SCT250
     FM210300 20010KT P6SM FEW100 SCT250=



000
FTUS45 KVEF 201729 AAA
TAFLAS
TAF AMD
KLAS 201729Z 2017/2118 15009G16KT P6SM OVC250
     FM202000 19014G23KT P6SM FEW100 BKN250
     FM210300 20010KT P6SM FEW100 SCT250=



000
FTUS45 KVEF 201729 AAA
TAFLAS
TAF AMD
KLAS 201729Z 2017/2118 15009G16KT P6SM OVC250
     FM202000 19014G23KT P6SM FEW100 BKN250
     FM210300 20010KT P6SM FEW100 SCT250=



000
FTUS45 KVEF 201729 AAA
TAFLAS
TAF AMD
KLAS 201729Z 2017/2118 15009G16KT P6SM OVC250
     FM202000 19014G23KT P6SM FEW100 BKN250
     FM210300 20010KT P6SM FEW100 SCT250=



000
FTUS45 KVEF 201729 AAA
TAFLAS
TAF AMD
KLAS 201729Z 2017/2118 15009G16KT P6SM OVC250
     FM202000 19014G23KT P6SM FEW100 BKN250
     FM210300 20010KT P6SM FEW100 SCT250=



000
FTUS45 KVEF 201720
TAFVGT
TAF
KVGT 201720Z 2018/2118 VRB04KT P6SM BKN250
     FM201900 15012G21KT P6SM FEW100 BKN250
     FM202300 20012G20KT P6SM FEW100 SCT250
     FM210300 20010KT P6SM FEW100 SCT250=



000
FTUS45 KVEF 201720
TAFDAG
TAF
KDAG 201720Z 2018/2118 29010KT P6SM BKN250
     FM210000 23012KT P6SM FEW250
     FM210600 27012KT P6SM FEW250=



000
FTUS45 KVEF 201720
TAFLAS
TAF
KLAS 201720Z 2018/2118 VRB05KT P6SM OVC250
     FM202000 19014G23KT P6SM FEW100 BKN250
     FM210300 20010KT P6SM FEW100 SCT250=



000
FTUS45 KVEF 201720
TAFEED
TAF
KEED 201720Z 2018/2118 VRB05KT P6SM BKN250
     FM202000 19012G20KT P6SM BKN250
     FM210200 23010KT P6SM FEW250=



000
FTUS45 KVEF 201720
TAFLAS
TAF
KLAS 201720Z 2018/2118 VRB05KT P6SM OVC250
     FM202000 19014G23KT P6SM FEW100 BKN250
     FM210300 20010KT P6SM FEW100 SCT250=



000
FTUS45 KVEF 201720
TAFBIH
TAF
KBIH 201720Z 2018/2118 VRB04KT P6SM FEW100 BKN250
     FM201900 16013G23KT P6SM VCSH SCT070 BKN090
     FM210300 14010KT P6SM SCT090=



000
FTUS45 KVEF 201720
TAFVGT
TAF
KVGT 201720Z 2018/2118 VRB04KT P6SM BKN250
     FM201900 15012G21KT P6SM FEW100 BKN250
     FM202300 20012G20KT P6SM FEW100 SCT250
     FM210300 20010KT P6SM FEW100 SCT250=



000
FTUS45 KVEF 201720
TAFDAG
TAF
KDAG 201720Z 2018/2118 29010KT P6SM BKN250
     FM210000 23012KT P6SM FEW250
     FM210600 27012KT P6SM FEW250=



000
FTUS45 KVEF 201720
TAFEED
TAF
KEED 201720Z 2018/2118 VRB05KT P6SM BKN250
     FM202000 19012G20KT P6SM BKN250
     FM210200 23010KT P6SM FEW250=



000
FTUS45 KVEF 201720
TAFLAS
TAF
KLAS 201720Z 2018/2118 VRB05KT P6SM OVC250
     FM202000 19014G23KT P6SM FEW100 BKN250
     FM210300 20010KT P6SM FEW100 SCT250=



000
FTUS45 KVEF 201720
TAFLAS
TAF
KLAS 201720Z 2018/2118 VRB05KT P6SM OVC250
     FM202000 19014G23KT P6SM FEW100 BKN250
     FM210300 20010KT P6SM FEW100 SCT250=



000
FTUS45 KVEF 201720
TAFBIH
TAF
KBIH 201720Z 2018/2118 VRB04KT P6SM FEW100 BKN250
     FM201900 16013G23KT P6SM VCSH SCT070 BKN090
     FM210300 14010KT P6SM SCT090=



000
FTUS45 KVEF 201441 AAA
TAFLAS
TAF AMD
KLAS 201441Z 2015/2112 VRB05KT P6SM OVC250
     FM202000 19014G23KT P6SM FEW100 BKN250
     FM210300 20010KT P6SM FEW100 SCT250=



000
FTUS45 KVEF 201120
TAFEED
TAF
KEED 201120Z 2012/2112 VRB05KT P6SM BKN250
     FM202000 19012G20KT P6SM BKN250
     FM210200 23010KT P6SM FEW250=



000
FTUS45 KVEF 201120
TAFBIH
TAF
KBIH 201120Z 2012/2112 30006KT P6SM BKN080 BKN100
     FM201400 VRB04KT P6SM FEW100 BKN250
     FM201900 16013G23KT P6SM VCSH SCT070 BKN090
     FM210300 14010KT P6SM SCT090=



000
FTUS45 KVEF 201120
TAFVGT
TAF
KVGT 201120Z 2012/2112 VRB04KT P6SM BKN250
     FM201900 15012G21KT P6SM FEW100 BKN250
     FM202300 20012G20KT P6SM FEW100 SCT250
     FM210300 20010KT P6SM FEW100 SCT250=



000
FTUS45 KVEF 201120
TAFLAS
TAF
KLAS 201120Z 2012/2112 20008KT P6SM BKN250
     FM201500 VRB05KT P6SM BKN250
     FM202000 19014G23KT P6SM FEW100 BKN250
     FM210300 20010KT P6SM FEW100 SCT250=



000
FTUS45 KVEF 201120
TAFDAG
TAF
KDAG 201120Z 2012/2112 29010KT P6SM BKN250
     FM210000 23012KT P6SM FEW250
     FM210600 27012KT P6SM FEW250=



000
FTUS45 KVEF 201120
TAFLAS
TAF
KLAS 201120Z 2012/2112 20008KT P6SM BKN250
     FM201500 VRB05KT P6SM BKN250
     FM202000 19014G23KT P6SM FEW100 BKN250
     FM210300 20010KT P6SM FEW100 SCT250=



000
FTUS45 KVEF 201120
TAFLAS
TAF
KLAS 201120Z 2012/2112 20008KT P6SM BKN250
     FM201500 VRB05KT P6SM BKN250
     FM202000 19014G23KT P6SM FEW100 BKN250
     FM210300 20010KT P6SM FEW100 SCT250=



000
FTUS45 KVEF 201120
TAFDAG
TAF
KDAG 201120Z 2012/2112 29010KT P6SM BKN250
     FM210000 23012KT P6SM FEW250
     FM210600 27012KT P6SM FEW250=



000
FTUS45 KVEF 201120
TAFLAS
TAF
KLAS 201120Z 2012/2112 20008KT P6SM BKN250
     FM201500 VRB05KT P6SM BKN250
     FM202000 19014G23KT P6SM FEW100 BKN250
     FM210300 20010KT P6SM FEW100 SCT250=



000
FTUS45 KVEF 201120
TAFEED
TAF
KEED 201120Z 2012/2112 VRB05KT P6SM BKN250
     FM202000 19012G20KT P6SM BKN250
     FM210200 23010KT P6SM FEW250=



000
FTUS45 KVEF 201120
TAFBIH
TAF
KBIH 201120Z 2012/2112 30006KT P6SM BKN080 BKN100
     FM201400 VRB04KT P6SM FEW100 BKN250
     FM201900 16013G23KT P6SM VCSH SCT070 BKN090
     FM210300 14010KT P6SM SCT090=



000
FTUS45 KVEF 201120
TAFVGT
TAF
KVGT 201120Z 2012/2112 VRB04KT P6SM BKN250
     FM201900 15012G21KT P6SM FEW100 BKN250
     FM202300 20012G20KT P6SM FEW100 SCT250
     FM210300 20010KT P6SM FEW100 SCT250=



    US Dept of Commerce
    National Oceanic and Atmospheric Administration
    National Weather Service
    1325 East West Highway
    Silver Spring, MD 20910
    Page Author: NWS Internet Services Team
Disclaimer
Information Quality
Credits
Glossary
Privacy Policy
Freedom of Information Act (FOIA)
About Us
Career Opportunities